Time;durP1;ratioP1;P1;durP2;ratioP2;P2;SDS_P1;SDS_P2;PMS_P1;PMS_P2;Temp;Humidity;BMP_temperature;BMP_pressure;BME280_temperature;BME280_humidity;BME280_pressure;Samples;Min_cycle;Max_cycle;Signal;HPM_P1;HPM_P2
2022/08/11 00:01:13;;;;;;;3.43;2.40;;;18.50;99.90;;;;;;5034633;28;20342;-59
2022/08/11 00:03:47;;;;;;;5.90;2.53;;;18.40;99.90;;;;;;5035081;28;20232;-60
2022/08/11 00:06:24;;;;;;;3.73;2.60;;;18.40;99.90;;;;;;5034528;28;20218;-59
2022/08/11 00:08:53;;;;;;;4.20;2.70;;;18.30;99.90;;;;;;5034496;28;20225;-59
2022/08/11 00:11:22;;;;;;;5.57;2.67;;;18.30;99.90;;;;;;5033392;28;20261;-59
2022/08/11 00:13:54;;;;;;;3.27;2.47;;;18.30;99.90;;;;;;5034456;28;20681;-59
2022/08/11 00:16:25;;;;;;;4.00;2.67;;;18.30;99.90;;;;;;5034512;28;20449;-59
2022/08/11 00:18:55;;;;;;;4.27;2.33;;;18.20;99.90;;;;;;5034758;28;20261;-59
2022/08/11 00:21:26;;;;;;;3.70;2.20;;;18.20;99.90;;;;;;5033229;28;20246;-59
2022/08/11 00:24:14;;;;;;;4.50;2.10;;;18.20;99.90;;;;;;5031610;28;20232;-59
2022/08/11 00:26:48;;;;;;;3.40;2.27;;;18.10;99.90;;;;;;5034277;28;20416;-59
2022/08/11 00:29:17;;;;;;;3.50;2.50;;;18.00;99.90;;;;;;5033479;28;20260;-58
2022/08/11 00:31:49;;;;;;;3.23;2.13;;;18.00;99.90;;;;;;5033162;28;20261;-59
2022/08/11 00:34:20;;;;;;;3.03;2.50;;;18.00;99.90;;;;;;5034453;28;20570;-59
2022/08/11 00:36:52;;;;;;;3.53;2.30;;;17.90;99.90;;;;;;5033849;28;20230;-59
2022/08/11 00:39:22;;;;;;;3.57;2.23;;;17.90;99.90;;;;;;5033940;28;20814;-59
2022/08/11 00:42:10;;;;;;;5.57;2.73;;;17.90;99.90;;;;;;5033684;28;20247;-59
2022/08/11 00:44:49;;;;;;;5.33;2.53;;;17.80;99.90;;;;;;5033968;28;20234;-60
2022/08/11 00:47:26;;;;;;;3.17;2.70;;;17.80;99.90;;;;;;5033905;28;20307;-59
2022/08/11 00:50:07;;;;;;;4.43;2.83;;;17.80;99.90;;;;;;5032949;28;20221;-59
2022/08/11 00:52:59;;;;;;;3.17;2.53;;;17.80;99.90;;;;;;5029203;28;20564;-60
2022/08/11 00:56:07;;;;;;;4.10;2.70;;;17.70;99.90;;;;;;5019662;28;20582;-58
2022/08/11 00:59:15;;;;;;;3.20;2.90;;;17.70;99.90;;;;;;5025221;28;20731;-59
2022/08/11 01:02:15;;;;;;;3.37;2.70;;;17.70;99.90;;;;;;5032185;28;20260;-59
2022/08/11 01:05:24;;;;;;;3.30;3.00;;;17.70;99.90;;;;;;5033659;28;20264;-59
2022/08/11 01:08:14;;;;;;;4.43;3.37;;;17.60;99.90;;;;;;5033696;28;20222;-60
2022/08/11 01:10:54;;;;;;;4.03;3.23;;;17.60;99.90;;;;;;5032240;28;20305;-59
2022/08/11 01:14:05;;;;;;;4.33;3.10;;;17.60;99.90;;;;;;5027280;28;20609;-59
2022/08/11 01:17:28;;;;;;;5.00;3.07;;;17.50;99.90;;;;;;5033242;28;20226;-59
2022/08/11 01:20:09;;;;;;;4.20;3.53;;;17.50;99.90;;;;;;5032249;28;20243;-59
2022/08/11 01:23:40;;;;;;;4.33;2.77;;;17.40;99.90;;;;;;5033276;28;20230;-59
2022/08/11 01:26:44;;;;;;;4.07;3.17;;;17.40;99.90;;;;;;4959877;28;20231;-59
2022/08/11 01:29:58;;;;;;;3.73;2.70;;;17.40;99.90;;;;;;5032614;28;20245;-59
2022/08/11 01:33:24;;;;;;;3.40;3.10;;;17.40;99.90;;;;;;5028319;28;20363;-57
2022/08/11 01:36:24;;;;;;;5.10;3.73;;;17.40;99.90;;;;;;4943785;28;20322;-59
2022/08/11 01:39:18;;;;;;;4.57;3.37;;;17.30;99.90;;;;;;5033009;28;20740;-59
2022/08/11 01:45:11;;;;;;;5.10;3.43;;;17.20;99.90;;;;;;5032871;28;20239;-59
2022/08/11 01:47:52;;;;;;;4.37;3.43;;;17.20;99.90;;;;;;5032738;28;20243;-59
2022/08/11 01:50:35;;;;;;;4.00;3.60;;;17.20;99.90;;;;;;5024405;28;20230;-59
2022/08/11 01:53:21;;;;;;;3.77;3.33;;;17.20;99.90;;;;;;5041548;28;20725;-59
2022/08/11 01:55:58;;;;;;;4.63;3.37;;;17.10;99.90;;;;;;5035192;28;20216;-58
2022/08/11 01:58:35;;;;;;;3.90;3.50;;;17.10;99.90;;;;;;5031058;28;20262;-58
2022/08/11 02:01:24;;;;;;;6.00;3.60;;;17.10;99.90;;;;;;5032047;28;20237;-59
2022/08/11 02:03:58;;;;;;;4.43;4.03;;;17.10;99.90;;;;;;5031841;28;20232;-58
2022/08/11 02:09:33;;;;;;;4.47;3.67;;;17.00;99.90;;;;;;5025777;28;21171;-59
2022/08/11 02:12:14;;;;;;;5.47;3.40;;;17.00;99.90;;;;;;5031364;28;20733;-59
2022/08/11 02:14:53;;;;;;;6.43;4.03;;;17.00;99.90;;;;;;5032275;28;20231;-59
2022/08/11 02:17:53;;;;;;;5.17;3.70;;;17.00;99.90;;;;;;5032447;28;20226;-59
2022/08/11 02:23:40;;;;;;;4.60;4.00;;;16.90;99.90;;;;;;5031835;28;20750;-59
2022/08/11 02:26:40;;;;;;;4.80;3.60;;;16.90;99.90;;;;;;5026957;28;20691;-59
2022/08/11 02:29:16;;;;;;;4.20;3.43;;;16.90;99.90;;;;;;5032167;28;20232;-59
2022/08/11 02:35:10;;;;;;;3.83;3.40;;;16.80;99.90;;;;;;5032568;28;20217;-59
2022/08/11 02:37:48;;;;;;;5.03;3.63;;;16.80;99.90;;;;;;5032038;28;20303;-59
2022/08/11 02:40:23;;;;;;;5.67;3.87;;;16.80;99.90;;;;;;5021931;28;20761;-58
2022/08/11 02:43:05;;;;;;;4.13;3.00;;;16.80;99.90;;;;;;5032364;28;20311;-59
2022/08/11 02:45:53;;;;;;;3.93;2.60;;;16.70;99.90;;;;;;5032235;28;20228;-59
2022/08/11 02:51:32;;;;;;;2.90;2.60;;;16.60;99.90;;;;;;5031500;28;20323;-59
2022/08/11 02:54:08;;;;;;;2.70;2.50;;;16.60;99.90;;;;;;5037138;28;20271;-59
2022/08/11 02:56:50;;;;;;;4.30;3.20;;;16.50;99.90;;;;;;5032028;28;20226;-59
2022/08/11 02:59:52;;;;;;;4.00;3.60;;;16.50;99.90;;;;;;5015921;28;20685;-58
2022/08/11 03:02:44;;;;;;;4.30;3.70;;;16.50;99.90;;;;;;5024835;28;20224;-58
2022/08/11 03:05:31;;;;;;;6.60;3.70;;;16.50;99.90;;;;;;5024790;28;20589;-59
2022/08/11 03:08:17;;;;;;;5.80;3.50;;;16.50;99.90;;;;;;5032187;28;20216;-58
2022/08/11 03:16:52;;;;;;;3.00;2.60;;;16.40;99.90;;;;;;5015951;28;20313;-59
2022/08/11 03:19:30;;;;;;;3.87;3.57;;;16.30;99.90;;;;;;5017944;28;20231;-58
2022/08/11 03:22:05;;;;;;;4.37;3.60;;;16.30;99.90;;;;;;5035226;28;20232;-59
2022/08/11 03:24:49;;;;;;;4.33;3.50;;;16.30;99.90;;;;;;5042038;28;20350;-59
2022/08/11 03:27:30;;;;;;;4.33;3.70;;;16.30;99.90;;;;;;5028355;28;20232;-58
2022/08/11 03:30:06;;;;;;;7.03;3.47;;;16.20;99.90;;;;;;5034591;28;20324;-58
2022/08/11 03:34:00;;;;;;;4.37;3.53;;;16.20;99.90;;;;;;5034460;28;20251;-59
2022/08/11 03:35:39;;;;;;;5.63;3.50;;;16.20;99.90;;;;;;5030233;28;20656;-58
2022/08/11 03:38:12;;;;;;;4.57;3.47;;;16.10;99.90;;;;;;5035070;28;20226;-58
2022/08/11 03:44:07;;;;;;;4.57;3.87;;;16.10;99.90;;;;;;5033119;28;20236;-58
2022/08/11 03:46:47;;;;;;;3.63;3.37;;;16.10;99.90;;;;;;5034840;28;20216;-59
2022/08/11 03:49:29;;;;;;;3.70;3.40;;;16.10;99.90;;;;;;5034046;28;20343;-58
2022/08/11 03:52:11;;;;;;;4.00;3.20;;;16.00;99.90;;;;;;5033507;28;20311;-58
2022/08/11 03:54:48;;;;;;;4.97;3.30;;;16.00;99.90;;;;;;5045225;28;20233;-58
2022/08/11 03:57:45;;;;;;;3.90;3.33;;;16.00;99.90;;;;;;5032468;28;20219;-58
2022/08/11 04:00:38;;;;;;;4.87;3.80;;;16.00;99.90;;;;;;5033246;28;20231;-58
2022/08/11 04:03:37;;;;;;;5.60;3.80;;;16.00;99.90;;;;;;5034369;28;20225;-58
2022/08/11 04:06:31;;;;;;;5.13;4.30;;;16.00;99.90;;;;;;5033796;28;20310;-59
2022/08/11 04:09:56;;;;;;;4.23;3.83;;;16.00;99.90;;;;;;5036091;28;20740;-58
2022/08/11 04:12:54;;;;;;;4.43;4.03;;;16.00;99.90;;;;;;5029334;28;20332;-58
2022/08/11 04:16:01;;;;;;;5.03;4.30;;;16.00;99.90;;;;;;5028348;28;20297;-58
2022/08/11 04:19:16;;;;;;;6.40;3.97;;;16.00;99.90;;;;;;5014875;28;20234;-59
2022/08/11 04:22:16;;;;;;;4.50;4.10;;;16.00;99.90;;;;;;5030808;28;20256;-59
2022/08/11 04:24:59;;;;;;;3.97;3.67;;;16.10;99.90;;;;;;5033859;28;20287;-58
2022/08/11 04:28:10;;;;;;;4.87;3.93;;;16.10;99.90;;;;;;5033556;28;20232;-59
2022/08/11 04:31:06;;;;;;;6.00;3.90;;;16.10;99.90;;;;;;5032760;28;20769;-59
2022/08/11 04:33:59;;;;;;;4.87;4.20;;;16.20;99.90;;;;;;5034133;28;20695;-59
2022/08/11 04:39:49;;;;;;;4.30;3.90;;;16.30;99.90;;;;;;5027764;28;20236;-58
2022/08/11 04:43:23;;;;;;;4.43;3.90;;;16.40;99.90;;;;;;5033979;28;20296;-58
2022/08/11 04:46:20;;;;;;;4.10;3.70;;;16.50;99.90;;;;;;5031658;28;20240;-58
2022/08/11 05:02:12;;;;;;;4.17;3.77;;;17.00;99.90;;;;;;5029363;28;20334;-58
2022/08/11 05:08:45;;;;;;;5.80;4.33;;;17.30;99.90;;;;;;5039362;28;20311;-58
2022/08/11 05:11:40;;;;;;;5.60;4.40;;;17.40;99.90;;;;;;5004247;28;20247;-59
2022/08/11 05:35:06;;;;;;;3.73;3.37;;;18.30;99.90;;;;;;5024189;28;20318;-59
2022/08/11 05:57:49;;;;;;;4.47;3.30;;;19.70;99.90;;;;;;4980413;28;20283;-59
2022/08/11 06:00:19;;;;;;;3.70;3.30;;;20.00;99.90;;;;;;4995863;28;20228;-59
2022/08/11 06:02:54;;;;;;;5.50;3.10;;;20.10;99.90;;;;;;5025139;28;20215;-59
2022/08/11 06:05:31;;;;;;;6.03;3.50;;;20.20;99.90;;;;;;5024764;28;20241;-59
2022/08/11 06:08:12;;;;;;;3.40;3.10;;;20.40;99.90;;;;;;5026182;28;20247;-59
2022/08/11 06:10:42;;;;;;;5.20;2.93;;;20.70;99.90;;;;;;5022771;28;20258;-59
2022/08/11 06:13:15;;;;;;;7.00;3.30;;;21.00;99.90;;;;;;5025751;28;20718;-59
2022/08/11 06:15:47;;;;;;;4.83;2.73;;;21.20;99.90;;;;;;5031184;28;20250;-59
2022/08/11 06:18:18;;;;;;;4.83;2.73;;;21.30;99.90;;;;;;5029311;28;20231;-60
2022/08/11 06:20:48;;;;;;;4.87;2.50;;;21.40;99.90;;;;;;5028203;28;20264;-58
2022/08/11 06:23:19;;;;;;;3.40;2.70;;;21.60;99.90;;;;;;5032318;28;20684;-58
2022/08/11 06:25:48;;;;;;;3.13;2.70;;;21.70;99.90;;;;;;5032235;28;20262;-58
2022/08/11 06:28:17;;;;;;;3.33;2.60;;;21.90;99.90;;;;;;5030510;28;20315;-58
2022/08/11 06:30:48;;;;;;;5.00;2.47;;;22.10;99.90;;;;;;5031071;28;20228;-58
2022/08/11 06:33:29;;;;;;;3.93;2.60;;;22.40;99.90;;;;;;5033965;28;20311;-57
2022/08/11 06:36:04;;;;;;;3.00;2.70;;;22.80;99.90;;;;;;5032223;28;20743;-58
2022/08/11 06:38:47;;;;;;;5.27;2.80;;;23.10;99.90;;;;;;5031993;28;20581;-58
2022/08/11 06:41:30;;;;;;;4.10;2.50;;;23.20;99.90;;;;;;5031982;28;20855;-59
2022/08/11 06:44:20;;;;;;;4.03;2.20;;;23.50;99.90;;;;;;5041608;28;20228;-58
2022/08/11 06:46:51;;;;;;;3.80;2.30;;;23.70;99.90;;;;;;5037249;28;20219;-58
2022/08/11 06:52:19;;;;;;;4.23;2.27;;;24.10;99.90;;;;;;5029091;28;20221;-58
2022/08/11 06:55:08;;;;;;;5.43;2.70;;;24.40;99.90;;;;;;5035811;28;20248;-58
2022/08/11 07:00:43;;;;;;;3.47;2.53;;;24.50;99.90;;;;;;5034481;28;20311;-58
2022/08/11 07:03:13;;;;;;;3.43;2.13;;;24.60;99.90;;;;;;5033206;28;20295;-59
2022/08/11 07:05:55;;;;;;;4.60;2.50;;;24.90;99.90;;;;;;5035458;28;20320;-58
2022/08/11 07:17:42;;;;;;;4.43;2.50;;;25.50;99.90;;;;;;5035702;28;20304;-59
2022/08/11 07:28:57;;;;;;;3.53;2.20;;;26.50;99.90;;;;;;5035189;28;20284;-58
2022/08/11 07:31:31;;;;;;;4.70;2.37;;;26.70;99.90;;;;;;5029821;28;20627;-59
2022/08/11 07:34:11;;;;;;;3.43;2.17;;;26.90;99.90;;;;;;5035306;28;20331;-59
2022/08/11 07:36:50;;;;;;;4.93;2.60;;;27.20;99.90;;;;;;5030451;28;20727;-59
2022/08/11 07:39:22;;;;;;;3.50;2.50;;;27.00;99.90;;;;;;5027344;28;20223;-58
2022/08/11 07:41:52;;;;;;;3.33;2.40;;;26.90;99.90;;;;;;5030508;28;20243;-58
2022/08/11 07:44:24;;;;;;;4.80;2.53;;;26.70;99.90;;;;;;5026048;28;20309;-59
2022/08/11 07:52:45;;;;;;;5.20;2.23;;;27.30;99.90;;;;;;4979139;28;20652;-58
2022/08/11 07:55:24;;;;;;;3.57;2.10;;;27.60;99.90;;;;;;4972779;28;20672;-58
2022/08/11 08:18:04;;;;;;;4.13;2.23;;;29.40;99.90;;;;;;5031582;28;20220;-59
2022/08/11 08:20:54;;;;;;;6.17;2.50;;;29.40;99.90;;;;;;5034560;28;20223;-59
2022/08/11 08:23:32;;;;;;;7.27;2.23;;;29.80;99.90;;;;;;5037711;28;20232;-59
2022/08/11 08:26:03;;;;;;;4.37;2.10;;;29.90;99.90;;;;;;5035445;28;20228;-59
2022/08/11 08:28:34;;;;;;;2.67;2.13;;;30.10;99.90;;;;;;5040079;28;20217;-59
2022/08/11 08:31:02;;;;;;;2.50;2.30;;;30.20;99.90;;;;;;5029670;28;20251;-59
2022/08/11 08:33:31;;;;;;;4.17;2.00;;;30.40;99.90;;;;;;5035495;28;20680;-60
2022/08/11 08:36:14;;;;;;;3.97;2.03;;;30.50;99.90;;;;;;5033851;28;20239;-59
2022/08/11 08:38:47;;;;;;;4.60;2.00;;;30.50;99.90;;;;;;5034084;28;20220;-59
2022/08/11 08:41:19;;;;;;;3.47;2.03;;;30.90;99.90;;;;;;5033186;28;20668;-60
2022/08/11 08:43:52;;;;;;;3.20;2.27;;;30.80;99.90;;;;;;5033809;28;20245;-59
2022/08/11 08:46:25;;;;;;;5.83;2.40;;;30.80;99.90;;;;;;5029751;28;20795;-59
2022/08/11 08:48:55;;;;;;;6.77;2.00;;;30.90;99.90;;;;;;5031070;28;20228;-60
